Time;durP1;ratioP1;P1;durP2;ratioP2;P2;SDS_P1;SDS_P2;PMS_P1;PMS_P2;Temp;Humidity;BMP_temperature;BMP_pressure;BME280_temperature;BME280_humidity;BME280_pressure;Samples;Min_cycle;Max_cycle;Signal;HPM_P1;HPM_P2
2024/04/12 00:01:02;;;;;;;0.10;0.10;;;;;;;16.00;77.10;101601.38;7364188;19;20569;-63
2024/04/12 00:03:36;;;;;;;0.10;0.10;;;;;;;15.97;76.98;101609.41;7359478;19;20011;-62
2024/04/12 00:06:05;;;;;;;0.10;0.10;;;;;;;15.94;76.66;101609.50;7359485;19;20638;-62
2024/04/12 00:08:31;;;;;;;0.10;0.10;;;;;;;15.95;77.01;101612.06;7361093;19;20016;-62
2024/04/12 00:11:00;;;;;;;0.15;0.15;;;;;;;15.97;76.31;101619.94;7363316;19;20014;-63
2024/04/12 00:13:31;;;;;;;0.20;0.20;;;;;;;15.96;76.84;101613.78;7370632;19;21297;-63
2024/04/12 00:15:57;;;;;;;0.10;0.10;;;;;;;15.94;77.33;101617.38;7370062;19;20027;-62
2024/04/12 00:18:26;;;;;;;0.10;0.10;;;;;;;15.94;76.24;101622.66;7364938;19;20014;-62
2024/04/12 00:20:58;;;;;;;0.10;0.10;;;;;;;15.94;77.03;101625.28;7363869;19;20010;-61
2024/04/12 00:23:27;;;;;;;0.10;0.10;;;;;;;15.93;76.87;101605.13;7364638;19;20006;-62
2024/04/12 00:25:59;;;;;;;0.00;0.00;;;;;;;15.92;77.16;101612.19;7366597;19;20025;-62
2024/04/12 00:28:31;;;;;;;0.10;0.10;;;;;;;15.92;77.23;101627.97;7370282;19;20754;-62
2024/04/12 00:31:06;;;;;;;0.10;0.10;;;;;;;15.96;75.95;101624.31;7359535;19;20020;-62
2024/04/12 00:33:34;;;;;;;0.10;0.10;;;;;;;15.93;76.84;101613.91;7368419;19;20593;-61
2024/04/12 00:36:07;;;;;;;0.10;0.10;;;;;;;15.94;76.83;101610.34;7369344;19;20114;-62
2024/04/12 00:38:35;;;;;;;0.10;0.10;;;;;;;15.88;76.96;101609.69;7360196;19;20006;-62
2024/04/12 00:41:19;;;;;;;0.10;0.10;;;;;;;15.92;77.26;101612.19;7369269;19;20038;-62
2024/04/12 00:43:48;;;;;;;0.10;0.10;;;;;;;15.66;76.30;101581.38;7368518;19;20021;-61
2024/04/12 00:46:25;;;;;;;0.10;0.10;;;;;;;15.91;76.44;101631.50;7359687;19;20494;-62
2024/04/12 00:49:00;;;;;;;0.10;0.10;;;;;;;15.90;76.25;101624.50;7369782;19;20106;-63
2024/04/12 00:51:27;;;;;;;0.10;0.10;;;;;;;15.87;76.72;101629.03;7362656;19;20010;-62
2024/04/12 00:53:57;;;;;;;0.10;0.10;;;;;;;15.88;76.39;101614.94;7369092;19;20757;-62
2024/04/12 00:56:27;;;;;;;0.10;0.10;;;;;;;15.81;77.15;101609.88;7367920;19;20010;-62
2024/04/12 00:58:56;;;;;;;0.10;0.10;;;;;;;15.76;77.27;101617.03;7367105;19;20015;-62
2024/04/12 01:01:24;;;;;;;0.10;0.10;;;;;;;15.78;76.84;101620.47;7369799;19;20029;-63
2024/04/12 01:03:54;;;;;;;0.10;0.10;;;;;;;15.75;76.55;101620.56;7366970;19;20022;-62
2024/04/12 01:06:24;;;;;;;0.15;0.15;;;;;;;15.73;76.94;101611.84;7369695;19;20107;-63
2024/04/12 01:08:51;;;;;;;0.10;0.10;;;;;;;15.72;76.91;101614.53;7361168;19;20022;-63
2024/04/12 01:11:19;;;;;;;;;;;;;;;15.74;75.47;101618.84;7363298;19;20024;-62
2024/04/12 01:13:47;;;;;;;0.10;0.10;;;;;;;15.70;75.76;101617.19;7368144;19;20486;-62
2024/04/12 01:16:13;;;;;;;0.10;0.10;;;;;;;15.67;75.89;101633.09;7364695;19;20414;-62
2024/04/12 01:18:38;;;;;;;0.10;0.10;;;;;;;15.65;76.85;101620.88;7363894;19;20437;-63
2024/04/12 01:21:10;;;;;;;0.10;0.10;;;;;;;15.61;77.05;101620.06;7362174;19;20015;-63
2024/04/12 01:23:48;;;;;;;0.10;0.10;;;;;;;15.64;77.01;101617.38;7369745;19;20070;-63
2024/04/12 01:26:17;;;;;;;0.10;0.10;;;;;;;15.60;76.98;101614.84;7363632;19;20014;-62
2024/04/12 01:28:43;;;;;;;0.10;0.10;;;;;;;15.47;77.05;101614.34;7364772;19;20010;-62
2024/04/12 01:31:14;;;;;;;0.15;0.15;;;;;;;15.59;76.95;101629.78;7361990;19;20023;-62
2024/04/12 01:33:41;;;;;;;0.10;0.10;;;;;;;15.56;77.25;101612.31;7364266;19;20021;-62
2024/04/12 01:36:10;;;;;;;0.10;0.10;;;;;;;15.57;77.40;101623.72;7369338;19;20024;-62
2024/04/12 01:38:39;;;;;;;0.00;0.00;;;;;;;15.56;77.31;101624.59;7366576;19;21514;-62
2024/04/12 01:41:05;;;;;;;0.10;0.10;;;;;;;15.48;77.48;101616.06;7366675;19;20013;-62
2024/04/12 01:43:38;;;;;;;0.10;0.10;;;;;;;15.59;76.77;101627.16;7356353;19;20015;-62
2024/04/12 01:46:04;;;;;;;0.10;0.10;;;;;;;15.50;76.29;101615.09;7364795;19;20517;-62
2024/04/12 01:48:35;;;;;;;0.10;0.10;;;;;;;15.58;76.70;101617.53;7367638;19;20014;-62
2024/04/12 01:51:02;;;;;;;0.10;0.10;;;;;;;15.54;76.50;101622.03;7362104;19;20427;-62
2024/04/12 01:53:29;;;;;;;0.10;0.10;;;;;;;15.36;77.11;101606.78;7366731;19;20007;-62
2024/04/12 01:55:55;;;;;;;0.10;0.10;;;;;;;15.51;77.04;101622.13;7360706;19;20034;-61
2024/04/12 01:58:20;;;;;;;0.10;0.10;;;;;;;15.35;76.74;101588.38;7360334;19;20025;-62
2024/04/12 02:00:48;;;;;;;0.10;0.10;;;;;;;15.53;77.22;101629.97;7367685;19;20014;-62
2024/04/12 02:03:14;;;;;;;0.03;0.03;;;;;;;15.52;77.14;101634.38;7359374;19;20018;-62
2024/04/12 02:05:39;;;;;;;0.10;0.10;;;;;;;15.51;77.01;101623.88;7361858;19;20018;-62
2024/04/12 02:08:16;;;;;;;0.10;0.10;;;;;;;15.52;76.99;101617.72;7365417;19;20010;-61
2024/04/12 02:10:43;;;;;;;0.10;0.10;;;;;;;15.51;77.37;101615.97;7360749;19;20026;-62
2024/04/12 02:13:22;;;;;;;0.10;0.10;;;;;;;15.38;77.30;101591.78;7366218;19;20026;-62
2024/04/12 02:15:51;;;;;;;0.10;0.10;;;;;;;15.50;77.50;101615.09;7357447;19;20034;-62
2024/04/12 02:18:22;;;;;;;0.10;0.10;;;;;;;15.52;76.74;101612.47;7365737;19;20010;-62
2024/04/12 02:20:49;;;;;;;0.10;0.10;;;;;;;15.49;77.02;101623.91;7366928;19;20010;-62
2024/04/12 02:23:15;;;;;;;0.10;0.10;;;;;;;15.47;76.59;101630.16;7366110;19;20018;-62
2024/04/12 02:25:42;;;;;;;0.10;0.10;;;;;;;15.48;77.08;101629.25;7361069;19;20381;-62
2024/04/12 02:28:09;;;;;;;0.20;0.20;;;;;;;15.47;76.80;101625.75;7367667;19;20011;-63
2024/04/12 02:30:41;;;;;;;;;;;;;;;15.53;75.81;101629.97;7362066;19;20021;-62
2024/04/12 02:33:10;;;;;;;0.10;0.10;;;;;;;15.49;75.90;101618.66;7363846;19;20588;-62
2024/04/12 02:35:41;;;;;;;0.10;0.10;;;;;;;15.50;76.60;101624.78;7363570;19;20087;-63
2024/04/12 02:38:15;;;;;;;0.10;0.10;;;;;;;15.46;76.87;101618.75;7365238;19;20503;-62
2024/04/12 02:40:44;;;;;;;0.10;0.10;;;;;;;15.17;76.67;101572.19;7364026;19;20105;-62
2024/04/12 02:43:11;;;;;;;0.10;0.10;;;;;;;15.40;77.12;101608.38;7359759;19;20467;-62
2024/04/12 02:45:36;;;;;;;0.10;0.10;;;;;;;15.42;77.18;101616.25;7364367;19;20066;-62
2024/04/12 02:48:03;;;;;;;0.15;0.15;;;;;;;15.28;77.09;101596.44;7361363;19;20562;-62
2024/04/12 02:50:29;;;;;;;0.10;0.10;;;;;;;15.40;76.72;101618.06;7362937;19;20006;-61
2024/04/12 02:52:55;;;;;;;0.20;0.20;;;;;;;15.40;76.26;101623.31;7354542;19;20007;-62
2024/04/12 02:55:21;;;;;;;0.10;0.10;;;;;;;15.43;77.10;101628.50;7365251;19;20038;-62
2024/04/12 02:57:46;;;;;;;0.15;0.15;;;;;;;15.41;76.84;101635.56;7357428;19;20017;-62
2024/04/12 03:00:25;;;;;;;0.00;0.00;;;;;;;15.36;76.88;101629.56;7362114;19;20010;-63
2024/04/12 03:02:52;;;;;;;0.10;0.10;;;;;;;15.41;77.06;101639.09;7363935;19;20936;-62
2024/04/12 03:05:22;;;;;;;0.20;0.20;;;;;;;15.40;76.98;101623.31;7360183;19;20023;-62
2024/04/12 03:07:51;;;;;;;0.10;0.10;;;;;;;15.29;76.92;101611.31;7363687;19;20455;-63
2024/04/12 03:10:18;;;;;;;0.10;0.10;;;;;;;15.43;76.68;101628.50;7363797;19;20328;-63
2024/04/12 03:12:53;;;;;;;0.10;0.10;;;;;;;15.44;76.70;101625.81;7359710;19;20824;-62
2024/04/12 03:15:20;;;;;;;0.10;0.10;;;;;;;15.43;76.94;101634.63;7334825;19;20497;-62
2024/04/12 03:17:48;;;;;;;0.10;0.10;;;;;;;15.47;76.31;101640.69;7362757;19;20010;-62
2024/04/12 03:20:18;;;;;;;0.10;0.10;;;;;;;15.43;77.04;101639.03;7364323;19;20601;-61
2024/04/12 03:22:47;;;;;;;0.10;0.10;;;;;;;15.45;76.56;101642.47;7357991;19;20010;-62
2024/04/12 03:25:15;;;;;;;0.15;0.15;;;;;;;15.36;76.62;101633.09;7364213;19;20018;-62
2024/04/12 03:27:42;;;;;;;;;;;;;;;15.48;75.51;101639.75;7336347;19;20086;-62
2024/04/12 03:30:13;;;;;;;0.10;0.10;;;;;;;15.43;75.87;101631.13;7363461;19;19930;-62
2024/04/12 03:32:46;;;;;;;0.10;0.10;;;;;;;15.46;75.52;101641.56;7364446;19;20647;-61
2024/04/12 03:35:12;;;;;;;0.10;0.10;;;;;;;15.42;76.19;101625.00;7362616;19;20018;-61
2024/04/12 03:37:39;;;;;;;0.10;0.10;;;;;;;15.38;76.31;101622.50;7362663;19;20019;-62
2024/04/12 03:40:17;;;;;;;0.20;0.20;;;;;;;15.41;75.75;101617.13;7363582;19;20014;-62
2024/04/12 03:42:45;;;;;;;0.10;0.10;;;;;;;15.42;75.76;101611.00;7363265;19;20583;-62
2024/04/12 03:45:13;;;;;;;0.10;0.10;;;;;;;15.26;75.86;101590.38;7363175;19;20014;-62
2024/04/12 03:47:40;;;;;;;0.10;0.10;;;;;;;15.27;76.50;101597.34;7356958;19;20002;-62
2024/04/12 03:50:13;;;;;;;0.10;0.10;;;;;;;15.36;76.17;101612.03;7364136;19;20070;-62
2024/04/12 03:52:44;;;;;;;0.10;0.10;;;;;;;15.40;75.95;101623.31;7358128;19;20017;-62
2024/04/12 03:55:10;;;;;;;0.10;0.10;;;;;;;15.36;75.85;101617.28;7361557;19;20486;-62
2024/04/12 03:57:39;;;;;;;0.10;0.10;;;;;;;15.36;75.87;101619.03;7360012;19;20102;-62
2024/04/12 04:00:13;;;;;;;0.10;0.10;;;;;;;15.37;75.08;101623.41;7356844;19;20003;-61
2024/04/12 04:02:41;;;;;;;0.10;0.10;;;;;;;15.34;75.28;101623.50;7363729;19;20010;-62
2024/04/12 04:05:14;;;;;;;0.10;0.10;;;;;;;15.30;75.53;101623.56;7359142;19;20112;-61
2024/04/12 04:07:41;;;;;;;0.10;0.10;;;;;;;15.31;75.80;101625.31;7359577;19;20010;-63
2024/04/12 04:10:13;;;;;;;0.10;0.10;;;;;;;15.32;75.22;101637.56;7359176;19;20010;-63
2024/04/12 04:12:44;;;;;;;0.13;0.13;;;;;;;15.30;75.51;101625.34;7366090;19;20486;-62
2024/04/12 04:15:13;;;;;;;0.10;0.10;;;;;;;15.31;75.66;101634.97;7353486;19;20632;-62
2024/04/12 04:17:38;;;;;;;0.10;0.10;;;;;;;15.31;75.91;101632.34;7364101;19;20023;-62
2024/04/12 04:20:06;;;;;;;0.10;0.10;;;;;;;15.29;75.29;101637.63;7361112;19;20486;-63
2024/04/12 04:25:00;;;;;;;0.10;0.10;;;;;;;15.25;75.35;101625.47;7366035;19;20042;-62
2024/04/12 04:27:26;;;;;;;0.10;0.10;;;;;;;15.29;75.23;101631.50;7343393;19;20007;-62
2024/04/12 04:29:52;;;;;;;0.10;0.10;;;;;;;15.31;75.33;101641.09;7362425;19;20018;-63
2024/04/12 04:32:21;;;;;;;0.10;0.10;;;;;;;15.12;75.46;101602.19;7361411;19;20007;-62
2024/04/12 04:35:06;;;;;;;0.10;0.10;;;;;;;15.32;74.88;101634.94;7363309;19;20006;-62
2024/04/12 04:37:37;;;;;;;0.10;0.10;;;;;;;15.31;75.21;101634.97;7364764;19;20006;-62
2024/04/12 04:40:16;;;;;;;0.10;0.10;;;;;;;15.32;74.93;101637.56;7360880;19;20018;-62
2024/04/12 04:42:45;;;;;;;0.10;0.10;;;;;;;15.29;75.38;101642.03;7361268;19;20014;-61
2024/04/12 04:45:17;;;;;;;0.10;0.10;;;;;;;15.29;75.41;101637.63;7360314;19;20645;-62
2024/04/12 04:47:44;;;;;;;0.10;0.10;;;;;;;15.18;75.33;101626.53;7361920;19;20018;-61
2024/04/12 04:50:10;;;;;;;0.20;0.20;;;;;;;15.29;75.40;101645.53;7357869;19;20010;-62
2024/04/12 04:52:36;;;;;;;0.10;0.10;;;;;;;15.30;75.52;101651.66;7362000;19;20006;-61
2024/04/12 04:55:02;;;;;;;0.10;0.10;;;;;;;15.29;75.29;101658.69;7359973;19;20011;-62
2024/04/12 04:57:29;;;;;;;0.10;0.10;;;;;;;15.30;75.09;101665.66;7368232;19;20843;-62
2024/04/12 05:00:05;;;;;;;0.10;0.10;;;;;;;15.31;75.14;101641.09;7365558;19;20014;-62
2024/04/12 05:02:34;;;;;;;0.10;0.10;;;;;;;15.17;75.42;101606.41;7361445;19;20014;-63
2024/04/12 05:05:06;;;;;;;0.10;0.10;;;;;;;15.30;75.16;101628.81;7364656;19;20041;-61
2024/04/12 05:07:35;;;;;;;0.10;0.10;;;;;;;15.31;74.50;101621.81;7370194;19;20085;-62
2024/04/12 05:10:09;;;;;;;0.10;0.10;;;;;;;15.30;75.03;101634.09;7365666;19;20035;-62
2024/04/12 05:12:40;;;;;;;0.10;0.10;;;;;;;15.12;74.22;101597.78;7368049;19;20498;-63
2024/04/12 05:15:30;;;;;;;0.10;0.10;;;;;;;15.28;74.92;101628.03;7358125;19;20839;-62
2024/04/12 05:17:54;;;;;;;0.10;0.10;;;;;;;15.28;74.61;101630.66;7367357;19;20019;-62
2024/04/12 05:20:29;;;;;;;0.10;0.10;;;;;;;15.28;74.72;101630.66;7366697;19;20109;-62
2024/04/12 05:23:00;;;;;;;0.10;0.10;;;;;;;15.26;74.41;101627.22;7366757;19;20011;-62
2024/04/12 05:25:25;;;;;;;0.10;0.10;;;;;;;15.27;74.61;101622.81;7369542;19;20014;-63
2024/04/12 05:27:51;;;;;;;0.10;0.10;;;;;;;15.26;74.38;101636.88;7366278;19;20030;-62
2024/04/12 05:30:18;;;;;;;0.10;0.10;;;;;;;15.20;74.11;101615.97;7365136;19;20097;-62
2024/04/12 05:32:44;;;;;;;0.10;0.10;;;;;;;15.25;74.54;101633.34;7367055;19;20490;-62
2024/04/12 05:35:09;;;;;;;0.10;0.10;;;;;;;15.23;74.11;101629.91;7367377;19;20025;-62
2024/04/12 05:37:35;;;;;;;0.20;0.20;;;;;;;15.23;74.08;101637.81;7367453;19;20013;-62
2024/04/12 05:40:04;;;;;;;0.10;0.10;;;;;;;15.23;74.28;101647.47;7366427;19;20042;-62
2024/04/12 05:42:30;;;;;;;0.10;0.10;;;;;;;15.23;74.34;101650.97;7367880;19;20010;-61
2024/04/12 05:44:59;;;;;;;0.10;0.10;;;;;;;15.22;73.75;101651.88;7367621;19;20391;-62
2024/04/12 05:47:25;;;;;;;0.20;0.20;;;;;;;15.19;74.20;101641.41;7365080;19;20014;-61
2024/04/12 05:49:50;;;;;;;0.10;0.10;;;;;;;15.21;73.63;101647.53;7363678;19;20010;-63
2024/04/12 05:52:19;;;;;;;0.10;0.10;;;;;;;15.21;73.60;101639.63;7365133;19;20014;-62
2024/04/12 05:54:45;;;;;;;0.10;0.10;;;;;;;15.05;74.07;101618.13;7365969;19;20010;-62
2024/04/12 05:57:11;;;;;;;0.10;0.10;;;;;;;15.17;74.09;101631.84;7366367;19;20110;-61
2024/04/12 05:59:41;;;;;;;0.10;0.10;;;;;;;15.15;73.77;101628.38;7363672;19;20030;-62
2024/04/12 06:02:10;;;;;;;0.10;0.10;;;;;;;15.16;74.23;101633.63;7366052;19;20015;-62
2024/04/12 06:04:36;;;;;;;0.10;0.10;;;;;;;15.16;74.04;101633.63;7363667;19;20018;-62
2024/04/12 06:07:11;;;;;;;0.10;0.10;;;;;;;15.14;73.71;101643.31;7362563;19;20014;-62
2024/04/12 06:09:37;;;;;;;0.10;0.10;;;;;;;15.15;74.06;101634.50;7358890;19;20021;-62
2024/04/12 06:12:06;;;;;;;0.10;0.10;;;;;;;15.02;73.98;101617.34;7357349;19;20006;-62
2024/04/12 06:14:33;;;;;;;0.10;0.10;;;;;;;15.13;73.28;101643.34;7365157;19;20017;-62
2024/04/12 06:17:00;;;;;;;0.10;0.10;;;;;;;15.10;73.65;101641.66;7364656;19;21573;-62
2024/04/12 06:19:26;;;;;;;0.10;0.10;;;;;;;15.14;73.75;101652.97;7365848;19;20447;-61
2024/04/12 06:21:51;;;;;;;0.10;0.10;;;;;;;15.14;73.76;101648.56;7364132;19;20018;-63
2024/04/12 06:24:26;;;;;;;0.20;0.20;;;;;;;15.16;73.45;101643.28;7363574;19;20017;-61
2024/04/12 06:26:54;;;;;;;0.10;0.10;;;;;;;15.14;73.34;101632.78;7365119;19;20014;-62
2024/04/12 06:29:22;;;;;;;0.00;0.00;;;;;;;15.12;74.01;101629.34;7363659;19;20018;-62
2024/04/12 06:31:50;;;;;;;0.10;0.10;;;;;;;15.15;73.97;101620.50;7363276;19;20025;-62
2024/04/12 06:34:18;;;;;;;0.10;0.10;;;;;;;15.16;74.31;101625.72;7365876;19;20010;-61
2024/04/12 06:36:45;;;;;;;0.10;0.10;;;;;;;15.18;74.01;101616.00;7366116;19;20508;-62
2024/04/12 06:39:11;;;;;;;0.10;0.10;;;;;;;15.21;73.71;101613.31;7363483;19;20030;-61
2024/04/12 06:41:37;;;;;;;0.10;0.10;;;;;;;15.22;73.76;101616.81;7363104;19;20003;-61
2024/04/12 06:44:03;;;;;;;0.10;0.10;;;;;;;15.23;73.96;101632.53;7363047;19;20013;-62
2024/04/12 06:46:31;;;;;;;0.10;0.10;;;;;;;15.24;73.63;101644.78;7365886;19;20040;-62
2024/04/12 06:49:07;;;;;;;0.17;0.17;;;;;;;15.23;73.51;101642.22;7356175;19;20015;-63
2024/04/12 06:51:43;;;;;;;0.10;0.10;;;;;;;15.29;73.85;101647.28;7361982;19;20043;-63
2024/04/12 06:54:09;;;;;;;0.10;0.10;;;;;;;15.16;73.28;101620.47;7359448;19;20011;-62
2024/04/12 06:56:35;;;;;;;0.13;0.13;;;;;;;15.31;73.34;101635.84;7364032;19;20021;-63
2024/04/12 06:59:07;;;;;;;0.10;0.10;;;;;;;15.33;73.49;101630.53;7361737;19;20094;-62
2024/04/12 07:01:34;;;;;;;0.10;0.10;;;;;;;15.36;73.55;101634.81;7363880;19;20026;-62
2024/04/12 07:04:05;;;;;;;0.10;0.10;;;;;;;15.39;73.95;101642.66;7355554;19;20498;-63
2024/04/12 07:06:32;;;;;;;0.10;0.10;;;;;;;15.42;73.90;101626.78;7365158;19;20610;-62
2024/04/12 07:08:58;;;;;;;0.10;0.10;;;;;;;15.46;73.62;101633.66;7361587;19;20019;-61
2024/04/12 07:11:24;;;;;;;0.10;0.10;;;;;;;15.49;73.06;101642.34;7362795;19;20019;-62
2024/04/12 07:13:50;;;;;;;0.10;0.10;;;;;;;15.52;72.94;101641.41;7360279;19;20696;-61
2024/04/12 07:16:24;;;;;;;0.10;0.10;;;;;;;15.59;72.95;101653.47;7358899;19;20027;-62
2024/04/12 07:18:52;;;;;;;0.10;0.10;;;;;;;15.61;72.16;101649.03;7356951;19;21547;-63
2024/04/12 07:21:22;;;;;;;0.10;0.10;;;;;;;15.59;72.11;101656.13;7362121;19;20014;-62
2024/04/12 07:23:51;;;;;;;0.10;0.10;;;;;;;15.60;71.96;101644.66;7362123;19;20018;-62
2024/04/12 07:26:24;;;;;;;0.10;0.10;;;;;;;15.62;72.27;101650.78;7363661;19;20015;-62
2024/04/12 07:28:58;;;;;;;0.10;0.10;;;;;;;15.57;72.20;101631.63;7360557;19;20779;-62
2024/04/12 07:31:34;;;;;;;0.10;0.10;;;;;;;15.69;72.46;101644.44;7363478;19;20021;-63
2024/04/12 07:34:01;;;;;;;0.15;0.15;;;;;;;15.67;72.45;101633.09;7357537;19;20534;-62
2024/04/12 07:36:30;;;;;;;0.15;0.15;;;;;;;15.72;71.90;101636.47;7365349;19;20022;-62
2024/04/12 07:39:02;;;;;;;0.20;0.20;;;;;;;15.75;71.48;101641.63;7322354;19;20015;-62
2024/04/12 07:41:32;;;;;;;0.17;0.17;;;;;;;15.58;72.12;101614.91;7360151;19;20021;-61
2024/04/12 07:43:58;;;;;;;0.10;0.10;;;;;;;15.75;72.13;101646.91;7358554;19;20014;-62
2024/04/12 07:46:27;;;;;;;0.17;0.17;;;;;;;15.65;72.12;101624.38;7358828;19;20069;-62
2024/04/12 07:48:57;;;;;;;0.17;0.17;;;;;;;15.85;72.02;101636.09;7361914;19;20020;-62
2024/04/12 07:51:28;;;;;;;0.10;0.10;;;;;;;15.86;71.42;101653.63;7362055;19;20015;-61
2024/04/12 07:53:54;;;;;;;0.10;0.10;;;;;;;15.86;71.45;101650.97;7360797;19;20367;-61
2024/04/12 07:56:21;;;;;;;0.10;0.10;;;;;;;15.92;72.02;101642.94;7358333;19;20025;-62
2024/04/12 07:59:01;;;;;;;0.10;0.10;;;;;;;15.95;71.95;101648.09;7359094;19;20502;-62
2024/04/12 08:01:27;;;;;;;0.10;0.10;;;;;;;16.00;72.23;101649.66;7360732;19;20023;-61
2024/04/12 08:03:56;;;;;;;0.10;0.10;;;;;;;15.93;71.86;101632.34;7362229;19;20022;-62
2024/04/12 08:06:36;;;;;;;0.10;0.10;;;;;;;16.12;70.98;101624.75;7356103;19;20018;-63
2024/04/12 08:09:06;;;;;;;0.10;0.10;;;;;;;16.11;71.39;101630.91;7361884;19;20627;-62
2024/04/12 08:11:35;;;;;;;0.10;0.10;;;;;;;16.02;70.94;101602.22;7360759;19;20019;-62
2024/04/12 08:14:20;;;;;;;0.10;0.10;;;;;;;16.20;70.73;101621.84;7364021;19;20953;-62
2024/04/12 08:16:46;;;;;;;0.08;0.08;;;;;;;16.24;70.13;101623.50;7359027;19;20031;-62
2024/04/12 08:19:13;;;;;;;0.10;0.10;;;;;;;16.27;70.73;101616.34;7362506;19;20541;-63
2024/04/12 08:21:45;;;;;;;0.10;0.10;;;;;;;16.24;70.76;101584.81;7364338;19;20021;-61
2024/04/12 08:24:14;;;;;;;0.10;0.10;;;;;;;16.21;70.59;101591.94;7359956;19;20011;-61
2024/04/12 08:26:46;;;;;;;0.10;0.10;;;;;;;16.40;70.86;101622.09;7364072;19;20519;-61
2024/04/12 08:29:20;;;;;;;0.10;0.10;;;;;;;16.46;70.54;101603.41;7349074;19;20314;-62
2024/04/12 08:31:48;;;;;;;0.10;0.10;;;;;;;16.55;70.30;101612.81;7358736;19;20029;-63
2024/04/12 08:34:15;;;;;;;0.10;0.10;;;;;;;16.59;70.27;101614.44;7368951;19;20014;-61
2024/04/12 08:36:43;;;;;;;0.10;0.10;;;;;;;16.63;69.96;101610.78;7368010;19;20685;-62
2024/04/12 08:39:25;;;;;;;0.10;0.10;;;;;;;16.63;70.28;101616.06;7338641;19;20010;-62
2024/04/12 08:42:04;;;;;;;0.10;0.10;;;;;;;16.76;70.07;101648.19;7368957;19;20007;-63
2024/04/12 08:44:30;;;;;;;0.10;0.10;;;;;;;16.72;68.86;101639.50;7359473;19;20034;-62
2024/04/12 08:47:16;;;;;;;0.10;0.10;;;;;;;16.77;69.15;101632.31;7362940;19;20011;-61
2024/04/12 08:49:45;;;;;;;0.00;0.00;;;;;;;16.77;69.24;101632.31;7368442;19;20689;-62
2024/04/12 08:52:24;;;;;;;0.10;0.10;;;;;;;16.79;68.99;101616.44;7366878;19;20463;-63
2024/04/12 08:54:54;;;;;;;0.10;0.10;;;;;;;16.78;69.00;101631.41;7365467;19;20546;-62
2024/04/12 08:57:24;;;;;;;0.10;0.10;;;;;;;16.82;68.69;101621.59;7362863;19;20037;-62
2024/04/12 08:59:51;;;;;;;0.10;0.10;;;;;;;16.80;68.57;101623.44;7367004;19;20097;-63
2024/04/12 09:02:25;;;;;;;0.10;0.10;;;;;;;16.84;68.51;101617.16;7368152;19;20041;-63
2024/04/12 09:04:52;;;;;;;0.10;0.10;;;;;;;16.70;68.97;101596.47;7362944;19;20018;-62
2024/04/12 09:07:20;;;;;;;0.10;0.10;;;;;;;16.86;69.08;101612.69;7369396;19;20018;-62
2024/04/12 09:09:54;;;;;;;0.10;0.10;;;;;;;16.88;68.98;101609.97;7365304;19;20105;-62
2024/04/12 09:12:24;;;;;;;0.10;0.10;;;;;;;16.86;68.83;101608.25;7365588;19;20740;-62
2024/04/12 09:14:51;;;;;;;0.10;0.10;;;;;;;16.92;69.00;101623.00;7366813;19;20498;-62
2024/04/12 09:17:24;;;;;;;0.13;0.13;;;;;;;16.97;67.71;101609.66;7364766;19;20019;-62
2024/04/12 09:19:50;;;;;;;0.20;0.20;;;;;;;17.00;67.93;101620.13;7368539;19;20342;-63
2024/04/12 09:22:17;;;;;;;0.10;0.10;;;;;;;17.04;67.43;101621.75;7365349;19;22285;-62
2024/04/12 09:24:48;;;;;;;0.10;0.10;;;;;;;17.08;67.82;101628.63;7366964;19;20011;-62
2024/04/12 09:27:22;;;;;;;0.10;0.10;;;;;;;17.07;67.38;101633.03;7364952;19;20010;-62
2024/04/12 09:29:54;;;;;;;0.10;0.10;;;;;;;17.09;68.08;101639.13;7366805;19;20002;-62
2024/04/12 09:35:11;;;;;;;0.10;0.10;;;;;;;17.19;66.69;101649.38;7362329;19;20017;-62
2024/04/12 09:37:42;;;;;;;0.10;0.10;;;;;;;17.16;66.38;101647.69;7364012;19;20010;-62
2024/04/12 09:45:45;;;;;;;0.10;0.10;;;;;;;17.19;66.45;101658.16;7361605;19;20644;-62
2024/04/12 10:37:51;;;;;;;0.10;0.10;;;;;;;18.00;66.43;101593.56;7366716;19;20371;-62
2024/04/12 10:40:17;;;;;;;0.10;0.10;;;;;;;18.17;66.27;101595.53;7355668;19;20014;-63
2024/04/12 10:42:45;;;;;;;0.10;0.10;;;;;;;18.34;65.96;101599.19;7357827;19;20742;-61
2024/04/12 10:45:15;;;;;;;0.10;0.10;;;;;;;18.51;65.76;101600.31;7366640;19;20392;-63
2024/04/12 10:47:44;;;;;;;0.17;0.17;;;;;;;18.60;64.00;101597.25;7360530;19;20023;-62
2024/04/12 10:50:10;;;;;;;0.10;0.10;;;;;;;18.71;64.14;101603.03;7363191;19;20786;-61
2024/04/12 10:52:38;;;;;;;0.10;0.10;;;;;;;18.77;62.46;101600.09;7355282;19;20014;-62
2024/04/12 10:55:09;;;;;;;0.10;0.10;;;;;;;18.81;62.33;101604.34;7362949;19;20017;-62
2024/04/12 10:57:44;;;;;;;0.10;0.10;;;;;;;18.88;63.14;101589.91;7364860;19;20861;-63
2024/04/12 11:00:16;;;;;;;0.10;0.10;;;;;;;18.89;63.13;101607.50;7365994;19;20029;-62
2024/04/12 11:02:45;;;;;;;0.10;0.10;;;;;;;18.89;63.05;101602.22;7366323;19;20018;-61
2024/04/12 11:07:54;;;;;;;0.10;0.10;;;;;;;19.07;63.21;101594.44;7362752;19;20526;-62
2024/04/12 11:10:24;;;;;;;0.10;0.10;;;;;;;19.04;61.50;101589.25;7364827;19;20014;-61
2024/04/12 11:12:55;;;;;;;0.10;0.10;;;;;;;19.24;61.49;101610.41;7366592;19;20039;-63
2024/04/12 11:32:14;;;;;;;0.10;0.10;;;;;;;19.73;59.04;101613.53;7359153;19;20014;-61
2024/04/12 11:34:42;;;;;;;0.20;0.20;;;;;;;19.74;60.12;101612.59;7360716;19;20010;-61
2024/04/12 11:37:13;;;;;;;0.10;0.10;;;;;;;19.76;59.88;101618.66;7363387;19;20005;-63
2024/04/12 11:39:41;;;;;;;0.15;0.15;;;;;;;19.77;60.46;101623.06;7360615;19;20379;-61
2024/04/12 11:42:15;;;;;;;0.10;0.10;;;;;;;19.81;58.92;101611.38;7356658;19;20021;-62
2024/04/12 11:44:44;;;;;;;0.10;0.10;;;;;;;19.83;58.77;101612.16;7360606;19;20021;-62
2024/04/12 11:47:10;;;;;;;0.10;0.10;;;;;;;19.83;59.33;101612.16;7362290;19;20037;-61
2024/04/12 11:49:49;;;;;;;0.20;0.20;;;;;;;19.86;58.71;101622.59;7360527;19;20007;-61
2024/04/12 11:52:18;;;;;;;0.10;0.10;;;;;;;19.89;59.12;101611.88;7358866;19;20014;-62
2024/04/12 11:54:51;;;;;;;0.10;0.10;;;;;;;19.95;59.23;101648.69;7351864;19;20018;-62
2024/04/12 11:57:22;;;;;;;0.10;0.10;;;;;;;19.91;58.12;101615.31;7362234;19;20033;-62
2024/04/12 11:59:54;;;;;;;0.10;0.10;;;;;;;19.96;58.43;101612.44;7349519;19;20344;-61
2024/04/12 12:02:22;;;;;;;0.10;0.10;;;;;;;19.86;58.10;101589.94;7363648;19;20960;-62
2024/04/12 12:04:48;;;;;;;0.10;0.10;;;;;;;19.97;57.71;101600.88;7352339;19;20337;-62
2024/04/12 12:07:16;;;;;;;0.10;0.10;;;;;;;19.97;57.86;101608.84;7358258;19;20014;-62
2024/04/12 12:09:42;;;;;;;0.10;0.10;;;;;;;19.92;58.26;101614.41;7357725;19;20028;-63
2024/04/12 12:12:10;;;;;;;0.20;0.20;;;;;;;19.89;57.92;101627.78;7361352;19;20016;-61
2024/04/12 12:14:43;;;;;;;0.10;0.10;;;;;;;19.77;58.08;101604.50;7365248;19;20499;-61
2024/04/12 12:17:16;;;;;;;0.10;0.10;;;;;;;19.86;57.99;101608.50;7363843;19;20791;-63
2024/04/12 12:19:42;;;;;;;0.10;0.10;;;;;;;19.76;57.51;101616.03;7360023;19;20791;-62
2024/04/12 12:22:10;;;;;;;0.10;0.10;;;;;;;19.69;57.29;101598.69;7368263;19;20042;-63
2024/04/12 12:24:37;;;;;;;0.10;0.10;;;;;;;19.60;57.35;101609.72;7369374;19;20019;-62
2024/04/12 12:27:09;;;;;;;0.20;0.20;;;;;;;19.58;57.62;101603.59;7369223;19;20010;-62
2024/04/12 12:29:38;;;;;;;0.20;0.20;;;;;;;19.48;57.74;101604.97;7367993;19;20565;-62
2024/04/12 12:32:05;;;;;;;0.10;0.10;;;;;;;19.40;58.24;101595.56;7363664;19;20526;-61
2024/04/12 12:34:33;;;;;;;0.10;0.10;;;;;;;19.35;58.23;101607.28;7368212;19;20006;-62
2024/04/12 12:37:04;;;;;;;0.10;0.10;;;;;;;19.29;58.54;101595.19;7370220;19;20082;-62
2024/04/12 12:39:31;;;;;;;0.10;0.10;;;;;;;19.23;59.24;101584.88;7361580;19;20022;-62
2024/04/12 12:42:10;;;;;;;0.10;0.10;;;;;;;19.31;59.50;101589.81;7366359;19;20912;-62
2024/04/12 12:44:36;;;;;;;0.10;0.10;;;;;;;19.26;59.14;101575.91;7345159;19;20341;-61
2024/04/12 12:47:02;;;;;;;0.13;0.13;;;;;;;19.21;59.24;101559.38;7356225;19;20007;-62
2024/04/12 12:49:33;;;;;;;0.10;0.10;;;;;;;19.26;59.34;101567.97;7367242;19;20105;-62
2024/04/12 12:51:59;;;;;;;0.20;0.20;;;;;;;19.34;59.24;101560.53;7363359;19;20064;-61
2024/04/12 12:54:26;;;;;;;0.10;0.10;;;;;;;19.34;59.17;101544.66;7363376;19;20760;-62
2024/04/12 12:56:53;;;;;;;0.10;0.10;;;;;;;19.37;59.25;101540.09;7363826;19;20041;-61